Time;durP1;ratioP1;P1;durP2;ratioP2;P2;SDS_P1;SDS_P2;PMS_P1;PMS_P2;Temp;Humidity;BMP_temperature;BMP_pressure;BME280_temperature;BME280_humidity;BME280_pressure;Samples;Min_cycle;Max_cycle;Signal;HPM_P1;HPM_P2
2021/12/12 00:00:53;;;;;;;45.12;11.73;;;;;;;4.80;74.62;102133.05;1858121;77;21050;-61
2021/12/12 00:03:38;;;;;;;41.48;12.53;;;;;;;4.78;74.58;102128.26;1857932;77;21167;-61
2021/12/12 00:06:10;;;;;;;45.45;13.28;;;;;;;4.77;74.60;102130.41;1858081;76;21069;-62
2021/12/12 00:08:42;;;;;;;45.58;14.73;;;;;;;4.77;74.70;102136.50;1858316;77;21135;-62
2021/12/12 00:11:13;;;;;;;60.23;14.00;;;;;;;4.79;74.89;102144.34;1859021;77;21062;-62
2021/12/12 00:13:47;;;;;;;60.43;14.58;;;;;;;4.75;75.21;102150.41;1858996;77;21531;-62
2021/12/12 00:16:17;;;;;;;48.70;15.48;;;;;;;4.74;75.24;102152.55;1857333;77;21062;-62
2021/12/12 00:18:46;;;;;;;49.27;14.13;;;;;;;4.77;75.04;102147.38;1858278;77;21514;-61
2021/12/12 00:21:18;;;;;;;61.35;17.50;;;;;;;4.81;74.94;102153.05;1858172;77;21073;-63
2021/12/12 00:23:47;;;;;;;52.40;18.92;;;;;;;4.82;74.85;102145.68;1858291;77;21116;-62
2021/12/12 00:26:16;;;;;;;55.08;17.37;;;;;;;4.81;74.73;102142.61;1858152;77;21574;-62
2021/12/12 00:28:46;;;;;;;59.15;15.35;;;;;;;4.80;74.69;102140.88;1857919;77;21855;-62
2021/12/12 00:31:17;;;;;;;54.63;16.57;;;;;;;4.79;74.66;102139.98;1858682;77;21073;-62
2021/12/12 00:33:49;;;;;;;54.05;17.50;;;;;;;4.76;74.60;102139.98;1858591;77;21045;-62
2021/12/12 00:36:19;;;;;;;54.15;16.20;;;;;;;4.75;74.62;102142.58;1858720;77;21132;-63
2021/12/12 00:38:50;;;;;;;59.38;14.55;;;;;;;4.75;74.71;102147.80;1858719;77;21030;-62
2021/12/12 00:41:24;;;;;;;27.73;10.10;;;;;;;4.73;74.72;102152.13;1861444;77;21081;-62
2021/12/12 00:43:55;;;;;;;29.18;9.70;;;;;;;4.69;74.71;102158.20;1861419;77;21054;-62
2021/12/12 00:46:25;;;;;;;24.63;8.50;;;;;;;4.63;74.71;102149.45;1862015;77;21120;-62
2021/12/12 00:48:54;;;;;;;47.43;10.60;;;;;;;4.57;74.87;102148.52;1861774;77;21062;-64
2021/12/12 00:51:26;;;;;;;28.83;10.23;;;;;;;4.52;74.92;102148.49;1858614;77;21550;-63
2021/12/12 00:53:56;;;;;;;27.48;9.13;;;;;;;4.50;74.99;102149.32;1858790;77;21152;-62
2021/12/12 00:56:26;;;;;;;46.80;10.25;;;;;;;4.44;75.04;102143.62;1858778;77;21055;-62
2021/12/12 00:58:56;;;;;;;30.10;9.53;;;;;;;4.41;75.09;102137.09;1858923;77;21065;-62
2021/12/12 01:01:35;;;;;;;46.90;11.12;;;;;;;4.39;75.09;102142.70;1858138;77;21128;-62
2021/12/12 01:04:09;;;;;;;39.73;12.35;;;;;;;4.39;75.07;102149.22;1858031;77;21143;-62
2021/12/12 01:06:38;;;;;;;47.53;12.65;;;;;;;4.37;75.18;102150.94;1820983;78;21152;-62
2021/12/12 01:09:10;;;;;;;47.17;12.03;;;;;;;4.37;75.21;102144.42;1821180;79;21570;-62
2021/12/12 01:11:41;;;;;;;75.10;13.55;;;;;;;4.36;75.21;102150.52;1828922;78;21042;-62
2021/12/12 01:14:13;;;;;;;40.00;11.78;;;;;;;4.33;75.38;102155.69;1829385;78;21136;-62
2021/12/12 01:16:47;;;;;;;44.55;11.70;;;;;;;4.30;75.45;102149.13;1829693;78;21172;-62
2021/12/12 01:19:22;;;;;;;31.68;9.40;;;;;;;4.32;75.49;102142.23;1829832;78;21053;-62
2021/12/12 01:21:54;;;;;;;59.58;13.70;;;;;;;4.31;75.63;102150.89;1829536;78;21049;-62
2021/12/12 01:24:26;;;;;;;60.23;12.20;;;;;;;4.29;75.60;102146.09;1830077;78;21112;-61
2021/12/12 01:26:57;;;;;;;83.87;14.35;;;;;;;4.30;75.54;102141.31;1829970;78;21066;-61
2021/12/12 01:29:26;;;;;;;83.30;12.73;;;;;;;4.30;75.58;102138.70;1830080;78;21069;-61
2021/12/12 01:31:59;;;;;;;39.75;12.45;;;;;;;4.30;75.59;102137.40;1829912;78;21131;-62
2021/12/12 01:34:30;;;;;;;25.72;9.10;;;;;;;4.29;75.79;102147.41;1830201;78;21506;-62
2021/12/12 01:37:23;;;;;;;25.55;9.68;;;;;;;4.25;75.91;102139.54;1830100;78;21045;-62
2021/12/12 01:39:43;;;;;;;30.72;11.48;;;;;;;4.21;76.12;102149.50;1828289;78;21131;-62
2021/12/12 01:42:33;;;;;;;32.83;10.25;;;;;;;4.17;76.16;102150.74;1829972;78;21104;-61
2021/12/12 01:45:11;;;;;;;31.37;9.70;;;;;;;4.16;76.20;102144.66;1829385;78;21097;-61
2021/12/12 01:47:54;;;;;;;38.50;12.20;;;;;;;4.16;76.19;102134.23;1830123;78;21515;-62
2021/12/12 01:50:44;;;;;;;30.37;9.65;;;;;;;4.14;76.21;102124.67;1828208;78;21143;-60
2021/12/12 01:53:15;;;;;;;24.20;9.23;;;;;;;4.14;76.24;102117.70;1827492;78;21135;-61
2021/12/12 01:55:47;;;;;;;34.75;10.60;;;;;;;4.10;76.32;102112.03;1829095;78;21070;-61
2021/12/12 01:58:18;;;;;;;35.38;12.35;;;;;;;4.08;76.40;102116.36;1828906;78;21062;-61
2021/12/12 02:00:53;;;;;;;35.73;12.13;;;;;;;4.06;76.40;102125.90;1828996;78;21128;-62
2021/12/12 02:06:15;;;;;;;19.37;6.85;;;;;;;4.12;76.23;102136.38;1825740;78;21065;-60
2021/12/12 02:08:45;;;;;;;21.90;7.55;;;;;;;4.15;76.15;102142.03;1825782;78;21120;-61
2021/12/12 02:11:16;;;;;;;29.90;10.53;;;;;;;4.09;76.36;102145.45;1828578;77;21074;-59
2021/12/12 02:13:48;;;;;;;32.58;9.58;;;;;;;4.04;76.45;102147.16;1855403;77;21074;-58
2021/12/12 02:16:18;;;;;;;30.32;11.45;;;;;;;4.03;76.44;102139.75;1832286;77;21090;-59
2021/12/12 02:18:51;;;;;;;36.08;11.90;;;;;;;4.03;76.38;102137.58;1861146;77;21474;-59
2021/12/12 02:21:30;;;;;;;29.35;10.43;;;;;;;4.05;76.41;102141.94;1862831;76;21237;-59
2021/12/12 02:35:08;;;;;;;28.77;10.78;;;;;;;4.00;76.70;102122.80;1832656;77;21500;-61
2021/12/12 02:35:15;;;;;;;31.93;12.55;;;;;;;3.97;76.87;102132.31;1811362;77;21066;-60
2021/12/12 02:37:36;;;;;;;39.58;13.88;;;;;;;3.98;76.88;102131.44;1831177;77;21062;-60
2021/12/12 02:40:11;;;;;;;41.90;14.38;;;;;;;3.95;77.01;102136.20;1853841;77;21513;-60
2021/12/12 02:42:41;;;;;;;37.70;13.10;;;;;;;3.96;77.04;102135.77;1853921;77;21631;-60
2021/12/12 02:45:13;;;;;;;25.75;9.83;;;;;;;3.94;77.05;102124.45;1854013;77;21144;-62
2021/12/12 02:47:43;;;;;;;32.55;10.80;;;;;;;3.96;76.97;102118.39;1850991;77;21038;-61
2021/12/12 02:50:14;;;;;;;32.35;10.58;;;;;;;3.97;76.99;102106.26;1853972;77;21124;-63
2021/12/12 02:52:46;;;;;;;12.28;5.78;;;;;;;3.97;76.94;102104.52;1853948;77;21101;-61
2021/12/12 02:55:18;;;;;;;31.07;10.30;;;;;;;3.97;76.98;102103.65;1853874;76;21062;-62
2021/12/12 02:57:47;;;;;;;15.85;6.58;;;;;;;3.93;76.94;102112.27;1851192;77;21062;-60
2021/12/12 03:00:19;;;;;;;18.70;6.78;;;;;;;3.94;77.13;102124.45;1853968;76;21551;-65
2021/12/12 03:02:49;;;;;;;31.93;11.60;;;;;;;3.90;77.11;102127.89;1853959;77;21054;-67
2021/12/12 03:05:21;;;;;;;30.60;10.50;;;;;;;3.89;77.08;102122.22;1841830;76;21090;-65
2021/12/12 03:07:50;;;;;;;29.92;11.55;;;;;;;3.86;77.22;102122.64;1819121;78;21074;-64
2021/12/12 03:10:22;;;;;;;25.12;9.88;;;;;;;3.81;77.37;102124.31;1809898;78;21062;-66
2021/12/12 03:12:51;;;;;;;36.25;13.22;;;;;;;3.82;77.40;102127.38;1812311;77;21689;-65
2021/12/12 03:15:22;;;;;;;19.57;8.20;;;;;;;3.80;77.55;102134.31;1813425;77;21731;-66
2021/12/12 03:17:53;;;;;;;33.05;11.03;;;;;;;3.79;77.58;102140.36;1815016;77;21034;-65
2021/12/12 03:20:24;;;;;;;26.85;11.65;;;;;;;3.81;77.47;102141.69;1823952;77;21055;-67
2021/12/12 03:23:11;;;;;;;25.12;9.93;;;;;;;3.81;77.42;102134.73;1822235;77;21042;-68
2021/12/12 03:25:41;;;;;;;26.57;11.83;;;;;;;3.82;77.41;102130.42;1825014;77;21116;-59
2021/12/12 03:28:13;;;;;;;28.15;11.10;;;;;;;3.76;77.49;102123.41;1835610;77;21042;-60
2021/12/12 03:30:44;;;;;;;28.23;11.00;;;;;;;3.68;77.65;102136.77;1834749;77;21513;-61
2021/12/12 03:33:13;;;;;;;26.85;10.65;;;;;;;3.63;77.67;102139.73;1818207;78;21034;-61
2021/12/12 03:35:43;;;;;;;19.02;8.15;;;;;;;3.61;77.67;102145.36;1816649;79;21520;-61
2021/12/12 03:38:12;;;;;;;25.23;9.35;;;;;;;3.59;77.64;102138.81;1816494;79;21116;-62
2021/12/12 03:40:42;;;;;;;20.72;8.53;;;;;;;3.55;77.67;102136.17;1820690;78;21531;-62
2021/12/12 03:43:13;;;;;;;22.27;7.42;;;;;;;3.53;77.71;102133.55;1848613;78;21489;-60
2021/12/12 03:45:43;;;;;;;20.23;7.87;;;;;;;3.52;77.68;102136.13;1848751;77;21051;-59
2021/12/12 03:48:18;;;;;;;23.77;10.25;;;;;;;3.52;77.65;102142.63;1846855;77;21108;-58
2021/12/12 03:50:49;;;;;;;23.52;9.48;;;;;;;3.50;77.61;102138.70;1822863;76;21571;-59
2021/12/12 03:53:18;;;;;;;13.50;6.75;;;;;;;3.45;77.72;102138.66;1837065;78;21037;-62
2021/12/12 03:56:11;;;;;;;19.75;7.83;;;;;;;3.37;77.87;102135.06;1789989;79;21632;-59
2021/12/12 03:58:40;;;;;;;19.12;8.63;;;;;;;3.35;77.92;102138.08;1821393;79;21180;-62
2021/12/12 04:01:24;;;;;;;17.42;7.67;;;;;;;3.35;78.14;102132.88;1821292;79;21585;-63
2021/12/12 04:03:56;;;;;;;21.00;9.45;;;;;;;3.31;78.25;102125.88;1821533;79;21526;-60
2021/12/12 04:06:27;;;;;;;20.12;7.55;;;;;;;3.28;78.31;102120.63;1821545;78;21053;-63
2021/12/12 04:08:56;;;;;;;21.60;8.68;;;;;;;3.24;78.42;102114.94;1822082;78;21040;-64
2021/12/12 04:11:30;;;;;;;16.95;7.87;;;;;;;3.20;78.47;102114.02;1843196;78;21120;-63
2021/12/12 04:14:02;;;;;;;20.85;8.73;;;;;;;3.20;78.60;102113.16;1844827;77;21138;-63
2021/12/12 04:16:33;;;;;;;17.60;8.33;;;;;;;3.20;78.64;102107.52;1844889;78;21055;-63
2021/12/12 04:19:03;;;;;;;33.90;10.32;;;;;;;3.18;78.83;102105.76;1843334;77;21173;-63
2021/12/12 04:21:32;;;;;;;18.57;6.83;;;;;;;3.15;78.89;102109.61;1822218;79;21090;-64
2021/12/12 04:24:02;;;;;;;29.30;12.60;;;;;;;3.08;78.99;102117.34;1813269;79;21629;-63
2021/12/12 04:26:36;;;;;;;20.55;7.72;;;;;;;3.06;79.20;102116.45;1812805;79;21496;-63
2021/12/12 04:29:11;;;;;;;20.97;8.45;;;;;;;3.06;79.17;102118.16;1812472;79;21093;-63
2021/12/12 04:31:43;;;;;;;22.55;8.53;;;;;;;3.05;79.23;102127.70;1812867;79;21556;-63
2021/12/12 04:34:12;;;;;;;23.20;9.63;;;;;;;3.08;79.10;102127.75;1812824;79;21367;-62
2021/12/12 04:36:44;;;;;;;15.98;7.05;;;;;;;3.09;79.02;102120.38;1812693;79;21645;-62
2021/12/12 04:39:15;;;;;;;29.98;11.95;;;;;;;3.13;79.09;102128.23;1812827;79;21102;-62
2021/12/12 04:41:47;;;;;;;23.15;9.95;;;;;;;3.08;79.29;102126.86;1812878;79;21090;-63
2021/12/12 04:44:23;;;;;;;22.27;7.08;;;;;;;3.06;79.29;102125.97;1812843;79;21562;-63
2021/12/12 04:49:55;;;;;;;21.17;8.78;;;;;;;3.01;79.45;102120.71;1812806;79;21109;-64
2021/12/12 04:52:39;;;;;;;26.97;8.70;;;;;;;3.02;79.45;102128.08;1812950;79;21061;-64
2021/12/12 04:55:13;;;;;;;21.97;7.72;;;;;;;3.04;79.32;102131.17;1813990;79;21633;-60
2021/12/12 04:58:20;;;;;;;20.00;7.55;;;;;;;3.05;79.34;102132.91;1812542;79;21162;-60
2021/12/12 05:01:01;;;;;;;28.35;10.32;;;;;;;3.06;79.25;102124.66;1817797;78;21033;-60
2021/12/12 05:03:47;;;;;;;29.07;11.00;;;;;;;3.06;79.20;102134.67;1820725;78;21584;-60
2021/12/12 05:06:43;;;;;;;20.48;8.60;;;;;;;3.05;79.29;102143.31;1793120;80;21489;-61
2021/12/12 05:09:46;;;;;;;19.42;9.05;;;;;;;3.08;79.23;102151.17;1824443;79;21136;-60
2021/12/12 05:12:23;;;;;;;17.27;7.67;;;;;;;3.08;79.18;102157.69;1824061;78;21081;-62
2021/12/12 05:14:55;;;;;;;17.85;8.33;;;;;;;3.06;79.26;102155.48;1824283;79;21618;-60
2021/12/12 05:17:26;;;;;;;20.37;7.67;;;;;;;3.01;79.43;102150.64;1823616;79;21508;-60
2021/12/12 05:19:58;;;;;;;29.85;12.78;;;;;;;3.01;79.43;102157.14;1815989;79;21516;-60
2021/12/12 05:22:32;;;;;;;28.12;10.10;;;;;;;3.01;79.42;102158.87;1814757;78;21121;-61
2021/12/12 05:25:04;;;;;;;22.15;7.70;;;;;;;2.98;79.53;102154.48;1814802;78;21831;-61
2021/12/12 05:27:36;;;;;;;25.12;9.65;;;;;;;2.97;79.57;102147.55;1814816;79;21516;-60
2021/12/12 05:30:10;;;;;;;23.70;8.13;;;;;;;2.99;79.54;102157.95;1814315;78;21050;-59
2021/12/12 05:32:40;;;;;;;21.90;8.55;;;;;;;3.00;79.60;102151.47;1814828;79;21077;-60
2021/12/12 05:35:12;;;;;;;20.92;8.30;;;;;;;3.01;79.57;102153.23;1814708;79;21156;-60
2021/12/12 05:37:42;;;;;;;25.05;9.93;;;;;;;3.03;79.51;102156.73;1814805;79;21106;-59
2021/12/12 05:40:13;;;;;;;23.55;9.65;;;;;;;3.03;79.53;102152.83;1814929;79;21209;-59
2021/12/12 05:42:44;;;;;;;30.10;11.93;;;;;;;3.04;79.52;102158.50;1814971;79;21248;-58
2021/12/12 05:45:14;;;;;;;15.83;6.37;;;;;;;3.06;79.40;102155.48;1814907;79;21085;-58
2021/12/12 05:47:45;;;;;;;30.17;11.68;;;;;;;3.12;79.35;102165.52;1806838;78;21214;-58
2021/12/12 05:50:15;;;;;;;31.30;12.18;;;;;;;3.12;79.33;102163.81;1802356;80;21068;-58
2021/12/12 05:52:46;;;;;;;33.28;14.50;;;;;;;3.14;79.28;102158.63;1802362;80;21569;-58
2021/12/12 05:55:16;;;;;;;29.55;10.15;;;;;;;3.13;79.27;102154.27;1806070;78;21090;-59
2021/12/12 05:57:53;;;;;;;41.75;15.20;;;;;;;3.17;79.21;102159.55;1823791;79;21057;-59
2021/12/12 06:00:18;;;;;;;29.60;9.90;;;;;;;3.22;79.05;102163.07;1824075;78;21120;-60
2021/12/12 06:02:47;;;;;;;24.15;9.13;;;;;;;3.20;79.15;102168.69;1824413;79;21038;-60
2021/12/12 06:05:15;;;;;;;34.63;13.15;;;;;;;3.17;79.25;102166.47;1824248;79;21440;-61
2021/12/12 06:07:45;;;;;;;33.75;10.48;;;;;;;3.17;79.17;102167.77;1823019;79;21595;-61
2021/12/12 06:10:17;;;;;;;28.83;10.50;;;;;;;3.20;79.10;102169.13;1817624;79;21128;-61
2021/12/12 06:12:47;;;;;;;18.10;7.72;;;;;;;3.19;79.09;102172.16;1817523;79;21055;-61
2021/12/12 06:15:18;;;;;;;33.28;13.18;;;;;;;3.14;79.04;102172.95;1817743;79;21074;-61
2021/12/12 06:17:50;;;;;;;22.65;10.15;;;;;;;3.08;79.03;102158.98;1817900;79;21070;-60
2021/12/12 06:20:20;;;;;;;23.80;6.67;;;;;;;3.09;79.06;102162.02;1817551;79;21053;-61
2021/12/12 06:22:50;;;;;;;25.97;8.83;;;;;;;3.09;78.98;102164.63;1817644;79;21062;-59
2021/12/12 06:25:19;;;;;;;28.83;8.05;;;;;;;3.16;78.90;102172.54;1817575;79;21168;-59
2021/12/12 06:27:48;;;;;;;15.45;7.00;;;;;;;3.19;78.83;102173.46;1817700;79;21030;-60
2021/12/12 06:30:20;;;;;;;16.80;6.72;;;;;;;3.24;78.78;102176.11;1823393;78;21096;-59
2021/12/12 06:32:50;;;;;;;24.32;11.70;;;;;;;3.26;78.69;102175.70;1824299;79;21558;-61
2021/12/12 06:35:19;;;;;;;24.05;10.00;;;;;;;3.28;78.63;102168.78;1824279;79;21519;-61
2021/12/12 06:37:49;;;;;;;19.30;7.92;;;;;;;3.23;78.73;102166.14;1824180;79;21603;-61
2021/12/12 06:40:21;;;;;;;26.12;9.58;;;;;;;3.18;78.91;102165.63;1823620;79;21511;-60
2021/12/12 06:42:51;;;;;;;7.53;4.37;;;;;;;3.16;79.03;102166.03;1824250;79;21038;-61
2021/12/12 06:45:20;;;;;;;15.05;7.97;;;;;;;3.23;78.91;102170.48;1824247;79;21128;-61
2021/12/12 06:47:50;;;;;;;28.87;13.00;;;;;;;3.24;78.84;102179.58;1824264;79;21061;-61
2021/12/12 06:50:20;;;;;;;24.35;9.63;;;;;;;3.24;78.84;102186.52;1823621;79;21554;-60
2021/12/12 06:52:50;;;;;;;28.92;9.63;;;;;;;3.22;78.95;102192.14;1824275;79;21140;-61
2021/12/12 06:55:19;;;;;;;30.62;11.45;;;;;;;3.16;79.08;102181.22;1824374;79;21029;-61
2021/12/12 06:57:49;;;;;;;33.88;13.35;;;;;;;3.18;79.11;102183.41;1809115;78;21173;-60
2021/12/12 07:00:21;;;;;;;34.03;13.83;;;;;;;3.21;79.12;102181.27;1811455;79;21516;-60
2021/12/12 07:02:51;;;;;;;15.80;6.87;;;;;;;3.21;79.08;102185.17;1811216;79;21058;-61
2021/12/12 07:05:23;;;;;;;24.52;10.05;;;;;;;3.21;79.11;102172.16;1811657;79;21030;-60
2021/12/12 07:07:54;;;;;;;50.67;16.45;;;;;;;3.22;79.11;102175.22;1811057;79;21465;-61
2021/12/12 07:10:25;;;;;;;30.95;11.43;;;;;;;3.21;79.21;102176.95;1811528;79;21081;-61
2021/12/12 07:12:56;;;;;;;27.35;10.65;;;;;;;3.22;79.22;102179.13;1811318;79;21152;-61
2021/12/12 07:15:27;;;;;;;26.52;10.25;;;;;;;3.24;79.19;102183.48;1808697;79;21127;-61
2021/12/12 07:18:02;;;;;;;33.80;11.87;;;;;;;3.27;79.07;102180.94;1811402;79;21062;-60
2021/12/12 07:20:31;;;;;;;38.17;12.88;;;;;;;3.31;79.03;102184.90;1811274;79;21578;-61
2021/12/12 07:23:02;;;;;;;34.58;14.23;;;;;;;3.31;79.09;102188.80;1811217;78;21453;-63
2021/12/12 07:25:31;;;;;;;38.15;14.50;;;;;;;3.31;79.06;102193.58;1823574;79;21115;-62
2021/12/12 07:28:00;;;;;;;26.60;11.03;;;;;;;3.33;78.99;102183.19;1823656;79;21586;-62
2021/12/12 07:30:30;;;;;;;17.60;8.50;;;;;;;3.38;78.83;102181.09;1823609;79;21582;-63
2021/12/12 07:32:59;;;;;;;28.70;10.00;;;;;;;3.45;78.61;102172.52;1823131;79;21156;-62
2021/12/12 07:35:28;;;;;;;36.88;11.85;;;;;;;3.55;78.43;102172.64;1822304;79;21537;-62
2021/12/12 07:37:58;;;;;;;25.62;9.38;;;;;;;3.66;78.24;102177.11;1823543;79;21251;-63
2021/12/12 07:40:28;;;;;;;18.45;8.80;;;;;;;3.73;77.99;102172.87;1823731;79;21131;-61
2021/12/12 07:42:57;;;;;;;15.30;7.22;;;;;;;3.79;77.77;102170.77;1823741;79;21054;-62
2021/12/12 07:45:27;;;;;;;29.55;11.55;;;;;;;3.75;77.54;102165.94;1803861;79;21057;-62
2021/12/12 07:47:56;;;;;;;29.45;9.80;;;;;;;3.80;77.49;102159.06;1799281;80;21514;-62
2021/12/12 07:50:27;;;;;;;27.42;9.33;;;;;;;3.88;77.39;102166.09;1799334;79;21554;-62
2021/12/12 07:52:56;;;;;;;31.37;11.95;;;;;;;3.95;77.29;102157.50;1823768;79;21086;-62
2021/12/12 07:55:27;;;;;;;34.92;11.63;;;;;;;4.03;77.17;102164.95;1823845;79;21558;-62
2021/12/12 07:57:57;;;;;;;13.50;6.17;;;;;;;4.11;77.00;102160.68;1817572;78;21089;-61
2021/12/12 08:00:27;;;;;;;13.25;6.90;;;;;;;4.15;76.83;102152.06;1817713;79;21638;-62
2021/12/12 08:02:57;;;;;;;20.77;8.13;;;;;;;4.20;76.74;102145.13;1817795;79;21066;-62
2021/12/12 08:05:31;;;;;;;12.73;6.28;;;;;;;4.20;76.43;102142.97;1817690;79;21661;-62
2021/12/12 08:08:02;;;;;;;28.40;9.95;;;;;;;4.30;76.44;102136.09;1818209;79;21054;-63
2021/12/12 08:10:32;;;;;;;26.85;10.40;;;;;;;4.37;76.34;102136.59;1817785;79;21591;-62
2021/12/12 08:13:01;;;;;;;14.85;6.17;;;;;;;4.47;76.21;102137.14;1817766;79;21607;-62
2021/12/12 08:15:30;;;;;;;14.35;7.00;;;;;;;4.51;75.98;102136.73;1817651;79;21513;-62
2021/12/12 08:18:01;;;;;;;18.23;7.78;;;;;;;4.50;75.72;102129.34;1818097;79;21121;-62
2021/12/12 08:20:32;;;;;;;12.23;7.08;;;;;;;4.49;75.40;102121.50;1817842;79;21086;-62
2021/12/12 08:23:01;;;;;;;19.73;8.55;;;;;;;4.46;75.34;102115.81;1817714;79;21579;-60
2021/12/12 08:25:32;;;;;;;10.15;5.78;;;;;;;4.45;75.39;102112.78;1817840;79;21098;-60
2021/12/12 08:28:02;;;;;;;21.17;8.53;;;;;;;4.44;75.12;102114.52;1818023;79;21534;-64
2021/12/12 08:30:33;;;;;;;27.35;10.58;;;;;;;4.42;75.18;102107.53;1817807;79;21158;-61
2021/12/12 08:33:05;;;;;;;15.30;6.92;;;;;;;4.50;75.22;102100.66;1817695;79;21054;-63
2021/12/12 08:35:36;;;;;;;17.25;6.75;;;;;;;4.53;75.08;102085.45;1817736;79;21116;-63
2021/12/12 08:38:07;;;;;;;11.30;4.20;;;;;;;4.54;74.99;102088.52;1817654;79;21062;-62
2021/12/12 08:40:38;;;;;;;12.73;5.53;;;;;;;4.52;74.86;102082.38;1821309;78;21075;-63
2021/12/12 08:43:09;;;;;;;15.05;6.17;;;;;;;4.54;74.73;102085.47;1830332;78;21589;-64
2021/12/12 08:45:40;;;;;;;14.83;6.92;;;;;;;4.65;74.70;102089.46;1788151;79;21097;-62
2021/12/12 08:48:10;;;;;;;16.97;7.22;;;;;;;4.71;74.50;102093.84;1824280;79;21137;-62
2021/12/12 08:50:42;;;;;;;18.60;8.83;;;;;;;4.84;74.42;102093.05;1824095;79;21074;-62
2021/12/12 08:53:11;;;;;;;25.52;9.70;;;;;;;4.91;74.12;102080.48;1824222;79;21112;-61
2021/12/12 08:55:44;;;;;;;13.65;6.45;;;;;;;4.96;73.85;102073.56;1824433;79;21133;-61
2021/12/12 08:58:18;;;;;;;11.50;5.58;;;;;;;5.05;73.65;102071.86;1823949;78;21066;-61
2021/12/12 09:00:56;;;;;;;24.47;9.68;;;;;;;5.09;73.48;102061.86;1821357;79;21453;-61
2021/12/12 09:03:27;;;;;;;13.62;5.33;;;;;;;5.09;73.30;102068.39;1817851;79;21151;-62
2021/12/12 09:05:57;;;;;;;10.28;5.05;;;;;;;5.11;73.41;102066.66;1819905;79;21109;-61
2021/12/12 09:08:45;;;;;;;19.15;9.23;;;;;;;5.16;73.25;102068.86;1823773;79;21097;-61
2021/12/12 09:11:39;;;;;;;20.60;8.73;;;;;;;5.28;72.85;102071.53;1823844;79;21041;-61
2021/12/12 09:14:13;;;;;;;20.23;7.70;;;;;;;5.57;72.54;102072.95;1819056;79;21065;-61
2021/12/12 09:16:54;;;;;;;13.78;5.70;;;;;;;6.15;70.93;102068.73;1770004;81;21088;-61
2021/12/12 09:19:28;;;;;;;14.33;6.58;;;;;;;6.72;69.25;102057.78;1747647;81;21656;-61
2021/12/12 09:22:03;;;;;;;23.57;8.50;;;;;;;7.25;68.25;102059.81;1769942;81;21111;-61
2021/12/12 09:24:45;;;;;;;17.17;6.22;;;;;;;7.50;67.85;102045.28;1769938;80;21645;-61
2021/12/12 09:27:19;;;;;;;11.12;5.70;;;;;;;7.97;66.64;102051.09;1798861;79;21570;-61
2021/12/12 09:29:51;;;;;;;14.65;7.12;;;;;;;8.52;64.84;102041.93;1798922;79;21527;-62
2021/12/12 09:32:39;;;;;;;21.95;10.58;;;;;;;9.06;63.42;102036.98;1798944;79;21625;-61
2021/12/12 09:35:19;;;;;;;10.30;5.58;;;;;;;8.87;61.55;102043.77;1768743;81;21077;-62
2021/12/12 09:38:00;;;;;;;15.95;6.80;;;;;;;8.27;62.38;102046.06;1764207;81;21109;-61
2021/12/12 09:41:03;;;;;;;18.60;7.28;;;;;;;7.49;64.16;102054.04;1777812;80;21535;-62
2021/12/12 09:43:34;;;;;;;13.40;5.78;;;;;;;7.00;65.45;102045.92;1823526;79;21057;-64
2021/12/12 09:46:28;;;;;;;12.73;5.65;;;;;;;6.64;66.47;102050.81;1823709;79;21058;-62
2021/12/12 09:52:15;;;;;;;17.40;7.35;;;;;;;6.24;67.83;102045.64;1824232;78;21069;-61
2021/12/12 09:55:04;;;;;;;9.35;5.42;;;;;;;6.22;68.17;102044.77;1823660;79;21077;-61
2021/12/12 09:58:03;;;;;;;13.48;5.60;;;;;;;6.42;67.84;102043.01;1822604;79;21571;-63
2021/12/12 10:00:35;;;;;;;18.98;8.30;;;;;;;6.71;67.18;102039.45;1823916;78;21065;-61
2021/12/12 10:03:24;;;;;;;12.93;5.37;;;;;;;7.04;66.52;102036.31;1796411;78;21093;-62
2021/12/12 10:06:13;;;;;;;19.05;9.28;;;;;;;7.20;66.01;102043.23;1822986;79;21140;-62
2021/12/12 10:08:59;;;;;;;17.42;6.60;;;;;;;7.52;65.46;102039.59;1823883;78;21116;-62
2021/12/12 10:11:39;;;;;;;33.95;14.78;;;;;;;8.62;62.78;102029.16;1827166;77;21593;-61
2021/12/12 10:14:17;;;;;;;17.75;8.15;;;;;;;9.92;60.41;102023.94;1823748;79;21087;-62
2021/12/12 10:16:49;;;;;;;14.98;7.15;;;;;;;10.62;59.19;102022.34;1822150;79;21525;-60
2021/12/12 10:19:28;;;;;;;10.15;5.92;;;;;;;11.25;57.89;102018.89;1823680;79;21591;-61
2021/12/12 10:22:13;;;;;;;11.38;5.55;;;;;;;11.79;56.45;102018.11;1823699;79;21751;-61
2021/12/12 10:24:47;;;;;;;11.43;6.80;;;;;;;10.92;57.28;102020.00;1824255;78;21416;-61
2021/12/12 10:27:31;;;;;;;15.83;7.67;;;;;;;11.01;55.57;102019.81;1828485;78;21677;-61
2021/12/12 10:30:17;;;;;;;22.93;7.28;;;;;;;10.50;55.74;102009.42;1823799;79;21498;-63
2021/12/12 10:33:06;;;;;;;18.05;7.03;;;;;;;9.38;58.03;102010.72;1823790;79;21545;-64
2021/12/12 10:35:50;;;;;;;19.20;9.30;;;;;;;9.30;58.17;102013.92;1823636;79;21063;-62
2021/12/12 10:38:38;;;;;;;14.85;6.22;;;;;;;9.04;59.03;102020.37;1823566;79;21571;-62
2021/12/12 10:41:16;;;;;;;18.67;9.10;;;;;;;9.34;58.40;102010.34;1823596;79;21142;-63
2021/12/12 10:44:00;;;;;;;12.93;6.47;;;;;;;9.60;57.74;102008.20;1823635;79;21232;-62
2021/12/12 10:46:40;;;;;;;12.05;5.25;;;;;;;9.77;57.48;102004.45;1823372;79;21059;-62
2021/12/12 10:49:24;;;;;;;16.97;6.08;;;;;;;9.68;57.13;101997.56;1823637;79;21087;-63
2021/12/12 10:52:07;;;;;;;15.08;6.78;;;;;;;9.36;58.13;101998.05;1823334;79;21068;-63
2021/12/12 10:54:48;;;;;;;18.55;8.68;;;;;;;9.04;58.99;102004.61;1823101;79;21079;-63
2021/12/12 10:57:19;;;;;;;13.95;7.22;;;;;;;8.81;59.58;101999.16;1823212;79;21130;-63
2021/12/12 11:00:00;;;;;;;14.28;6.67;;;;;;;8.74;60.06;101990.92;1852065;77;21097;-62
2021/12/12 11:02:32;;;;;;;10.72;5.50;;;;;;;8.77;60.24;101987.41;1864126;77;21547;-62
2021/12/12 11:05:07;;;;;;;5.80;3.77;;;;;;;8.68;60.52;101988.38;1864943;77;21021;-61
2021/12/12 11:07:57;;;;;;;13.13;6.17;;;;;;;8.60;60.87;101994.17;1864825;76;21089;-61
2021/12/12 11:10:28;;;;;;;17.25;6.50;;;;;;;8.64;60.83;101994.55;1857860;77;21057;-63
2021/12/12 11:13:15;;;;;;;18.40;8.88;;;;;;;8.60;61.14;101996.80;1864571;77;21139;-61
2021/12/12 11:15:59;;;;;;;12.50;7.25;;;;;;;8.56;61.57;101995.06;1864971;77;21138;-62
2021/12/12 11:18:34;;;;;;;21.12;8.08;;;;;;;8.52;61.85;101994.25;1864927;77;21555;-63
2021/12/12 11:21:05;;;;;;;16.65;7.12;;;;;;;8.49;62.05;101993.83;1864896;77;21135;-62
2021/12/12 11:23:37;;;;;;;15.48;7.87;;;;;;;8.37;62.19;102003.54;1864009;77;21073;-64
2021/12/12 11:26:09;;;;;;;14.28;6.35;;;;;;;8.33;62.36;101992.20;1864325;77;21061;-62
2021/12/12 11:28:40;;;;;;;9.30;3.90;;;;;;;8.14;62.71;101991.96;1864668;77;21519;-61
2021/12/12 11:31:15;;;;;;;13.00;6.58;;;;;;;7.91;63.26;101985.13;1863922;77;21089;-61
2021/12/12 11:33:47;;;;;;;13.18;6.53;;;;;;;7.66;63.69;101985.33;1864249;77;21127;-61
2021/12/12 11:36:18;;;;;;;9.73;5.33;;;;;;;7.37;64.38;101988.13;1864987;77;21073;-60
2021/12/12 11:38:53;;;;;;;11.88;5.25;;;;;;;7.17;65.01;101983.44;1864824;77;21470;-61
2021/12/12 11:41:38;;;;;;;15.32;4.65;;;;;;;6.96;65.49;101982.66;1865106;77;21074;-61
2021/12/12 11:44:18;;;;;;;10.65;5.33;;;;;;;6.81;66.02;101982.73;1862583;77;21029;-72
2021/12/12 11:46:56;;;;;;;13.55;6.08;;;;;;;6.71;66.46;101979.25;1858293;76;21575;-68
2021/12/12 11:49:30;;;;;;;15.60;5.55;;;;;;;6.64;66.82;101974.91;1816161;78;21131;-68
2021/12/12 11:52:08;;;;;;;6.47;3.62;;;;;;;6.65;67.02;101975.36;1824014;77;21266;-64
2021/12/12 11:54:52;;;;;;;16.65;8.30;;;;;;;6.70;67.09;101977.53;1819020;78;21132;-66
2021/12/12 11:57:32;;;;;;;15.38;6.47;;;;;;;6.77;67.05;101979.25;1852629;77;21483;-67
2021/12/12 12:00:16;;;;;;;9.73;4.97;;;;;;;6.82;67.00;101985.32;1822675;79;21665;-64
2021/12/12 12:03:02;;;;;;;;;;;;;;;6.89;67.00;101984.42;1858381;76;21110;-66
2021/12/12 12:05:59;;;;;;;12.33;5.80;;;;;;;6.92;67.00;101980.95;1873670;76;20144;-64
2021/12/12 12:08:31;;;;;;;6.20;3.55;;;;;;;6.88;67.09;101977.88;1894788;76;21033;-60
2021/12/12 12:11:11;;;;;;;17.32;8.35;;;;;;;6.87;67.22;101982.25;1843570;77;21450;-60